Disclaimer

Please do not use the information listed here in-flight or in-navigation, as they are not provided to us by the airports but are provided by volunteers, so they might be outdated.

Search


Regions


Airport information page

Radio informations:
Aerodrome flight information system (AFIS) - 118.1 MHz

Airport informations:
Latitude: 64° 17' 07.70" N
Longitude: 027° 41' 32.69" E
Elevation: 483 feet - 147 meters
Operating hours: N/A
Operating agency: Civil government, landing fees and diplomatic clearance may be required
Timezone: UTC+2(+3DT) - Last Sunday in March to last Sunday in October
Fuel: Jet A1, without icing nhibitor.

100/130 MIL Spec, low lead, aviation gasoline (BLUE)

Runway information:
07/25 - 8199 x 157 feet< - >2499 x 48 meters

Recent METARs:
EFKI 151150Z AUTO 27005KT 9999 -SHSN OVC007 M04/M06 Q1035
EFKI 151220Z AUTO 26006KT 9999 OVC007 M04/M06 Q1035
EFKI 151250Z AUTO 27005KT 240V300 9999 OVC007 M04/M06 Q1035

Airport on the map: